Latest Weather Observations for Lady Elliot Island

IDQ60801

Issued at 9:32 am EST Saturday 13 April 2024 (issued every 10 minutes, with the page automatically refreshed every 10 minutes)

About weather observations | Map of weather stations | Latest weather observations for QLD | Other Formats
Station Details ID: 039059 Name: LADY ELLIOT ISLAND Lat: -24.11 Lon: 152.72 Height: 3.6 m
Data from the previous 72 hours. | See also: Recent months at Lady Elliot Island
Date/Time
EST
Temp
°C
App
Temp
°C
Dew
Point
°C
Rel
Hum
%
Delta-T
°C
Wind Press
QNH
hPa
Press
MSL
hPa
Rain since
9am
mm
Dir  Spd
km/h
Gust
km/h
Spd
kts
Gust
kts
13/09:30am 25.9 24.0 18.6 64 4.6 ESE 26 33 14 18 1020.2 1020.2 0.0
13/09:00am 25.6 23.7 18.5 65 4.5 ESE 26 33 14 18 1020.1 1020.1 4.2
13/08:30am 25.2 24.2 19.6 71 3.6 SE 24 32 13 17 1019.9 1019.9 4.2
13/08:00am 24.9 22.9 18.4 67 4.1 SE 26 33 14 18 1019.9 1019.9 4.2
13/07:30am 24.6 22.9 19.0 71 3.6 SE 26 32 14 17 1019.4 1019.4 4.2
13/07:00am 24.2 21.9 17.7 67 4.0 SE 26 33 14 18 1019.0 1019.0 4.2
13/06:30am 23.8 22.1 18.2 71 3.5 SE 24 32 13 17 1018.8 1018.8 4.2
13/06:00am 23.8 22.1 18.0 70 3.6 SE 24 30 13 16 1018.6 1018.6 4.2
13/05:30am 23.9 22.0 17.6 68 3.9 SE 24 30 13 16 1018.2 1018.2 4.2
13/05:00am 23.9 22.0 17.6 68 3.9 ESE 24 33 13 18 1018.1 1018.1 4.2
13/04:30am 23.8 21.8 17.5 68 3.9 ESE 24 32 13 17 1017.9 1017.9 4.2
13/04:00am 23.8 22.1 18.0 70 3.6 ESE 24 32 13 17 1017.6 1017.6 4.2
13/03:30am 23.9 22.1 18.8 73 3.2 ESE 26 33 14 18 1017.5 1017.5 4.2
13/03:00am 24.3 22.2 18.9 72 3.4 ESE 28 35 15 19 1017.5 1017.5 4.2
13/02:30am 24.2 22.2 18.2 69 3.8 ESE 26 35 14 19 1017.4 1017.4 4.2
13/02:00am 24.2 21.6 17.7 67 4.1 SE 28 39 15 21 1017.4 1017.4 4.2
13/01:30am 24.5 22.6 19.3 73 3.3 ESE 28 35 15 19 1017.4 1017.4 4.2
13/01:00am 24.3 22.1 18.7 71 3.5 ESE 28 33 15 18 1017.5 1017.5 4.2
13/12:30am 24.5 22.2 19.3 73 3.3 ESE 30 37 16 20 1017.7 1017.7 4.2
13/12:00am 24.5 23.2 19.1 72 3.4 ESE 24 32 13 17 1018.0 1018.0 4.2
 
Date/Time
EST
Temp
°C
App
Temp
°C
Dew
Point
°C
Rel
Hum
%
Delta-T
°C
Wind Press
QNH
hPa
Press
MSL
hPa
Rain since
9am
mm
Dir  Spd
km/h
Gust
km/h
Spd
kts
Gust
kts
12/11:30pm 24.3 21.9 18.2 68 3.8 ESE 28 35 15 19 1018.3 1018.3 4.2
12/11:00pm 24.3 22.1 18.7 71 3.5 SE 28 35 15 19 1018.4 1018.4 4.2
12/10:30pm 23.8 21.5 18.4 72 3.4 ESE 28 37 15 20 1018.5 1018.5 4.2
12/10:00pm 24.1 22.3 18.7 72 3.4 ESE 26 35 14 19 1018.5 1018.5 4.2
12/09:30pm 23.9 22.2 19.0 74 3.1 ESE 26 32 14 17 1018.6 1018.6 4.2
12/09:00pm 24.2 22.0 18.6 71 3.5 ESE 28 37 15 20 1018.7 1018.7 4.2
12/08:30pm 23.8 22.1 18.9 74 3.1 SE 26 33 14 18 1018.6 1018.6 4.2
12/08:00pm 23.7 20.9 19.4 77 2.7 SE 33 43 18 23 1018.1 1018.1 4.2
12/07:30pm 23.9 21.4 19.8 78 2.6 SE 32 41 17 22 1017.9 1017.9 4.2
12/07:00pm 23.9 20.8 18.5 72 3.4 SE 32 37 17 20 1017.6 1017.6 4.2
12/06:30pm 23.5 20.9 19.8 80 2.4 SE 33 44 18 24 1017.6 1017.6 4.2
12/06:00pm 23.8 21.1 20.5 82 2.1 SE 35 46 19 25 1017.1 1017.1 4.2
12/05:30pm 24.3 22.2 18.9 72 3.4 SE 28 35 15 19 1016.7 1016.7 4.2
12/05:00pm 24.5 22.4 18.9 71 3.6 SE 28 35 15 19 1016.4 1016.4 4.2
12/04:30pm 24.8 22.2 18.7 69 3.9 SE 30 39 16 21 1016.1 1016.1 4.2
12/04:00pm 25.0 22.8 19.6 72 3.5 SE 30 37 16 20 1015.8 1015.8 4.2
12/03:30pm 25.1 23.0 19.7 72 3.5 SE 30 37 16 20 1015.5 1015.5 4.2
12/03:00pm 25.2 23.2 20.0 73 3.4 SE 30 41 16 22 1015.5 1015.5 4.2
12/02:30pm 25.2 22.6 19.8 72 3.5 SE 33 43 18 23 1015.6 1015.6 4.2
12/02:00pm 24.9 22.0 18.8 69 3.9 SE 32 43 17 23 1015.9 1015.9 4.2
12/01:30pm 25.4 24.9 21.5 79 2.6 ESE 26 37 14 20 1015.8 1015.8 4.2
12/01:00pm 24.9 23.0 21.0 79 2.6 ESE 32 43 17 23 1016.1 1016.1 4.2
12/12:30pm 23.9 23.8 21.4 86 1.6 SE 24 30 13 16 1016.2 1016.2 4.2
12/12:00pm 21.5 17.1 20.1 92 0.9 SE 43 57 23 31 1016.9 1016.9 4.0
12/11:53am 24.2 22.8 20.5 80 2.4 SE 28 54 15 29 1016.9 1016.9 1.0
12/11:30am 25.2 24.0 20.9 77 2.8 ESE 28 41 15 22 1017.0 1017.0 1.0
12/11:00am 24.2 23.3 19.9 77 2.8 ESE 24 33 13 18 1017.5 1017.5 1.0
12/10:30am 21.8 18.7 20.4 92 0.9 SE 37 52 20 28 1018.2 1018.2 1.0
12/10:21am 23.2 21.0 19.6 80 2.3 SSE 30 52 16 28 1018.0 1018.0 0.2
12/10:00am 25.4 23.7 20.6 75 3.1 SE 30 39 16 21 1017.9 1017.9 0.2
12/09:30am 25.1 23.0 19.7 72 3.5 SE 30 39 16 21 1017.7 1017.7 0.0
12/09:00am 24.7 22.9 19.5 73 3.3 SE 28 41 15 22 1017.5 1017.5 0.4
12/08:30am 23.1 21.4 20.6 86 1.6 SE 30 39 16 21 1017.6 1017.6 0.4
12/08:00am 23.2 22.3 20.7 86 1.6 SSE 26 35 14 19 1017.4 1017.4 0.4
12/07:30am 22.2 18.8 19.9 87 1.5 SE 37 56 20 30 1017.1 1017.1 0.4
12/07:25am 22.8 19.3 18.8 78 2.5 SE 35 56 19 30 1017.0 1017.0 0.4
12/07:00am 23.0 20.5 19.8 82 2.1 SSE 32 41 17 22 1016.9 1016.9 0.4
12/06:30am 21.5 19.5 20.0 91 1.0 SSE 30 43 16 23 1016.7 1016.7 0.4
12/06:00am 22.0 19.5 20.8 93 0.8 SE 35 61 19 33 1016.2 1016.2 0.2
12/05:57am 22.4 20.9 21.0 92 0.9 SSE 30 50 16 27 1016.1 1016.1 0.2
12/05:30am 22.8 22.2 20.5 87 1.5 SSE 24 33 13 18 1015.9 1015.9 0.2
12/05:00am 22.5 21.9 20.4 88 1.4 SSE 24 32 13 17 1015.7 1015.7 0.2
12/04:30am 23.3 21.9 20.4 84 1.9 SSE 28 41 15 22 1015.5 1015.5 0.0
12/04:00am 23.1 22.5 20.4 85 1.7 SSE 24 33 13 18 1015.5 1015.5 0.0
12/03:30am 23.7 21.3 19.2 76 2.9 SSE 30 39 16 21 1015.5 1015.5 0.0
12/03:00am 23.8 22.2 20.1 80 2.4 SSE 28 39 15 21 1015.4 1015.4 0.0
12/02:30am 24.2 22.4 19.5 75 3.0 SE 28 39 15 21 1015.5 1015.5 0.0
12/02:00am 23.9 22.0 19.4 76 2.9 SSE 28 37 15 20 1015.6 1015.6 0.0
12/01:30am 24.0 21.5 18.9 73 3.2 SE 30 39 16 21 1015.9 1015.9 0.0
12/01:00am 23.9 21.1 17.2 66 4.1 SSE 28 39 15 21 1016.2 1016.2 0.0
12/12:30am 24.0 21.6 16.5 63 4.6 SSE 24 35 13 19 1016.3 1016.3 0.0
12/12:00am 24.2 22.1 16.2 61 4.9 SSE 22 32 12 17 1016.5 1016.5 0.0
 
Date/Time
EST
Temp
°C
App
Temp
°C
Dew
Point
°C
Rel
Hum
%
Delta-T
°C
Wind Press
QNH
hPa
Press
MSL
hPa
Rain since
9am
mm
Dir  Spd
km/h
Gust
km/h
Spd
kts
Gust
kts
11/11:30pm 24.3 21.3 16.8 63 4.6 SE 28 35 15 19 1016.7 1016.7 0.0
11/11:00pm 24.2 21.7 17.2 65 4.3 SE 26 35 14 19 1016.9 1016.9 0.0
11/10:30pm 24.2 21.9 17.7 67 4.1 SE 26 35 14 19 1017.0 1017.0 0.0
11/10:00pm 24.2 21.4 17.4 65 4.2 SE 28 37 15 20 1017.1 1017.1 0.0
11/09:30pm 24.1 21.4 17.6 67 4.0 SE 28 35 15 19 1017.2 1017.2 0.0
11/09:00pm 24.1 21.6 18.1 69 3.8 SE 28 35 15 19 1017.3 1017.3 0.0
11/08:30pm 24.2 21.1 17.4 65 4.2 SE 30 41 16 22 1017.1 1017.1 0.0
11/08:00pm 24.2 21.5 18.4 70 3.7 SE 30 39 16 21 1017.0 1017.0 0.0
11/07:30pm 24.2 21.7 18.8 72 3.4 SE 30 37 16 20 1016.7 1016.7 0.0
11/07:00pm 24.1 21.3 18.1 69 3.8 SE 30 39 16 21 1016.3 1016.3 0.0
11/06:30pm 24.1 21.3 18.1 69 3.8 SE 30 39 16 21 1015.8 1015.8 0.0
11/06:00pm 23.9 21.0 17.9 69 3.7 SE 30 39 16 21 1015.5 1015.5 0.0
11/05:30pm 23.8 21.8 19.1 75 3.0 SE 28 35 15 19 1015.3 1015.3 0.0
11/05:00pm 24.0 23.8 19.7 77 2.8 SE 20 30 11 16 1015.3 1015.3 0.0
11/04:30pm 24.3 22.6 19.8 76 2.9 SE 28 37 15 20 1015.2 1015.2 0.0
11/04:00pm 24.4 23.2 19.2 73 3.3 SE 24 35 13 19 1014.9 1014.9 0.0
11/03:30pm 25.1 23.7 20.4 75 3.1 SE 28 35 15 19 1014.6 1014.6 0.0
11/03:00pm 24.8 23.2 19.2 71 3.6 SSE 26 35 14 19 1014.2 1014.2 0.0
11/02:30pm 25.7 26.0 20.7 74 3.3 SSE 20 30 11 16 1014.4 1014.4 0.0
11/02:00pm 25.6 25.3 20.4 73 3.4 SSE 22 32 12 17 1014.5 1014.5 0.0
11/01:30pm 25.1 24.9 19.7 72 3.5 SSE 20 32 11 17 1014.6 1014.6 0.0
11/01:00pm 25.6 25.7 20.4 73 3.4 SSE 20 30 11 16 1014.7 1014.7 0.0
11/12:30pm 25.5 25.2 19.6 70 3.8 SSE 20 26 11 14 1014.9 1014.9 0.0
11/12:00pm 25.6 25.6 20.2 72 3.5 S 20 28 11 15 1015.2 1015.2 0.0
11/11:30am 25.2 24.6 19.8 72 3.5 SSE 22 30 12 16 1015.6 1015.6 0.0
11/11:00am 24.9 24.0 19.1 70 3.7 SSE 22 32 12 17 1016.0 1016.0 0.0
11/10:30am 25.1 24.4 19.5 71 3.6 SSE 22 32 12 17 1015.9 1015.9 0.0
11/10:00am 24.8 24.0 18.5 68 4.0 SSE 20 30 11 16 1016.1 1016.1 0.0
11/09:30am 24.3 22.9 18.0 68 4.0 SSE 22 33 12 18 1016.2 1016.2 0.0
11/09:00am 23.9 21.9 17.4 67 4.0 S 24 33 13 18 1016.1 1016.1 0.0
11/08:30am 23.7 21.9 17.0 66 4.1 SSE 22 33 12 18 1016.0 1016.0 0.0
11/08:00am 23.5 21.6 16.8 66 4.1 S 22 33 12 18 1015.8 1015.8 0.0
11/07:30am 22.9 20.7 16.9 69 3.7 S 24 33 13 18 1015.6 1015.6 0.0
11/07:00am 22.6 20.3 16.6 69 3.7 S 24 32 13 17 1015.3 1015.3 0.0
11/06:30am 22.1 19.8 16.6 71 3.3 S 24 35 13 19 1014.9 1014.9 0.0
11/06:00am 22.0 19.3 16.7 72 3.2 S 26 35 14 19 1014.7 1014.7 0.0
11/05:30am 22.1 19.4 16.6 71 3.3 S 26 35 14 19 1014.3 1014.3 0.0
11/05:00am 22.0 19.1 16.1 69 3.6 S 26 37 14 20 1014.0 1014.0 0.0
11/04:30am 22.0 18.5 15.6 67 3.8 S 28 37 15 20 1013.9 1013.9 0.0
11/04:00am 22.0 18.3 14.9 64 4.2 S 28 39 15 21 1013.7 1013.7 0.0
11/03:30am 22.1 18.6 15.5 66 3.9 S 28 35 15 19 1013.7 1013.7 0.0
11/03:00am 22.0 18.2 15.8 68 3.7 S 30 43 16 23 1013.7 1013.7 0.0
11/02:30am 22.0 18.0 14.1 61 4.6 S 28 39 15 21 1013.9 1013.9 0.0
11/02:00am 21.7 17.2 14.8 65 4.1 SSW 32 41 17 22 1014.1 1014.1 0.0
11/01:30am 22.2 17.9 14.3 61 4.6 S 30 43 16 23 1014.3 1014.3 0.0
11/01:00am 22.4 17.9 13.7 58 5.0 S 30 41 16 22 1014.6 1014.6 0.0
11/12:30am 22.3 18.0 14.4 61 4.6 SSW 30 43 16 23 1014.8 1014.8 0.0
11/12:00am 22.7 18.4 14.5 60 4.8 SSW 30 43 16 23 1014.8 1014.8 0.0
 
Date/Time
EST
Temp
°C
App
Temp
°C
Dew
Point
°C
Rel
Hum
%
Delta-T
°C
Wind Press
QNH
hPa
Press
MSL
hPa
Rain since
9am
mm
Dir  Spd
km/h
Gust
km/h
Spd
kts
Gust
kts
10/11:30pm 22.9 18.4 15.0 61 4.7 SSW 32 39 17 21 1014.6 1014.6 0.0
10/11:00pm 23.3 18.9 14.0 56 5.4 SSW 30 39 16 21 1014.7 1014.7 0.0
10/10:30pm 23.3 18.5 14.0 56 5.4 SSW 32 41 17 22 1014.8 1014.8 0.0
10/10:00pm 23.3 19.0 14.3 57 5.3 SSW 30 39 16 21 1014.7 1014.7 0.0
10/09:30pm 23.7 19.6 13.8 53 5.8 SSW 28 35 15 19 1014.7 1014.7 0.0
10/09:00pm 23.9 19.6 12.2 48 6.7 SSW 26 35 14 19 1014.7 1014.7 0.0
10/08:30pm 23.8 20.2 13.1 51 6.2 SSW 24 33 13 18 1014.3 1014.3 0.0
10/08:00pm 23.9 20.3 11.9 47 6.8 SSW 22 30 12 16 1013.8 1013.8 0.0
10/07:30pm 24.0 20.4 11.7 46 6.9 SSW 22 33 12 18 1013.3 1013.3 0.0
10/07:00pm 23.9 19.8 11.6 46 6.9 SSW 24 35 13 19 1012.7 1012.7 0.0
10/06:30pm 23.8 19.9 12.1 48 6.6 SSW 24 33 13 18 1012.3 1012.3 0.0
10/06:00pm 23.7 19.0 10.7 44 7.2 SSW 26 33 14 18 1011.9 1011.9 0.0
10/05:30pm 23.2 18.8 10.3 44 7.1 SSW 24 35 13 19 1011.8 1011.8 0.0
10/05:00pm 23.5 20.3 11.9 48 6.6 SSW 20 32 11 17 1011.6 1011.6 0.0
10/04:30pm 23.6 19.5 11.3 46 6.9 SSW 24 35 13 19 1011.3 1011.3 0.0
10/04:00pm 23.8 19.4 11.8 47 6.8 SSW 26 37 14 20 1010.9 1010.9 0.0
10/03:30pm 23.7 20.1 12.0 47 6.6 SSW 22 30 12 16 1011.0 1011.0 0.0
10/03:00pm 23.7 19.1 11.1 45 7.0 SSW 26 37 14 20 1011.0 1011.0 0.0
10/02:30pm 23.4 19.3 11.5 47 6.7 SSW 24 35 13 19 1010.9 1010.9 0.0
10/02:00pm 23.3 18.9 10.4 44 7.1 SW 24 37 13 20 1011.1 1011.1 0.0
10/01:30pm 23.6 19.7 12.0 48 6.6 SSW 24 37 13 20 1011.2 1011.2 0.0
10/01:00pm 23.0 18.3 10.8 46 6.8 SW 26 35 14 19 1011.5 1011.5 0.0
10/12:30pm 22.9 18.6 10.7 46 6.7 SW 24 33 13 18 1011.9 1011.9 0.0
10/12:00pm 23.0 18.8 11.1 47 6.6 SW 24 37 13 20 1012.1 1012.1 0.0
10/11:30am 22.7 18.3 10.5 46 6.7 SW 24 39 13 21 1012.6 1012.6 0.0
10/11:00am 22.4 17.9 11.5 50 6.1 SW 26 41 14 22 1013.0 1013.0 0.0
10/10:30am 22.4 18.0 12.9 55 5.4 SW 28 39 15 21 1013.2 1013.2 0.0
10/10:00am 22.1 17.5 12.4 54 5.5 SW 28 37 15 20 1013.2 1013.2 0.0

Other formats

Comma delimited format used in spreadsheet applications
http://www.bom.gov.au/fwo/IDQ60801/IDQ60801.94388.axf

JavaScript Object Notation format (JSON) in row-major order
http://www.bom.gov.au/fwo/IDQ60801/IDQ60801.94388.json

Data quality

Most of these data are generated automatically and are frequently updated. Quality checks on data are not normally performed. It is possible for incorrect values to appear. Refer to information at About Latest Weather Observations and please check the disclaimer before using these data.